Time;durP1;ratioP1;P1;durP2;ratioP2;P2;SDS_P1;SDS_P2;PMS_P1;PMS_P2;Temp;Humidity;BMP_temperature;BMP_pressure;BME280_temperature;BME280_humidity;BME280_pressure;Samples;Min_cycle;Max_cycle;Signal;HPM_P1;HPM_P2
2022/10/29 00:02:06;;;;;;;46.58;12.40;;;;;;;16.08;94.48;101722.28;5092656;28;20431;-64
2022/10/29 00:04:33;;;;;;;36.95;12.32;;;;;;;16.06;94.82;101718.06;5092315;28;20093;-63
2022/10/29 00:07:00;;;;;;;34.88;12.18;;;;;;;16.04;94.87;101717.41;5092853;28;20126;-64
2022/10/29 00:09:26;;;;;;;42.88;13.18;;;;;;;16.09;94.57;101720.44;5092769;28;20040;-64
2022/10/29 00:11:53;;;;;;;33.17;12.98;;;;;;;16.05;94.40;101719.09;5093300;28;20036;-64
2022/10/29 00:14:20;;;;;;;36.60;12.88;;;;;;;16.05;94.60;101719.94;5092931;28;20118;-64
2022/10/29 00:16:47;;;;;;;41.20;12.85;;;;;;;16.08;94.48;101721.41;5093175;28;20040;-63
2022/10/29 00:19:13;;;;;;;36.72;12.20;;;;;;;16.08;94.47;101727.63;5093258;28;20097;-64
2022/10/29 00:21:40;;;;;;;43.08;12.25;;;;;;;16.07;94.64;101733.16;5092843;28;20051;-63
2022/10/29 00:24:09;;;;;;;35.22;11.63;;;;;;;16.05;94.93;101729.81;5093027;28;20089;-64
2022/10/29 00:26:36;;;;;;;41.17;12.50;;;;;;;16.00;95.02;101734.81;5074704;28;20044;-64
2022/10/29 00:29:02;;;;;;;43.33;12.68;;;;;;;16.02;94.61;101728.28;5091660;28;20210;-64
2022/10/29 00:31:30;;;;;;;42.35;12.27;;;;;;;16.00;94.33;101729.47;5091523;28;20036;-64
2022/10/29 00:33:57;;;;;;;45.83;13.60;;;;;;;16.00;94.90;101732.97;5092584;28;20089;-63
2022/10/29 00:36:26;;;;;;;37.35;12.73;;;;;;;16.00;95.42;101726.78;5075217;28;20135;-63
2022/10/29 00:38:53;;;;;;;38.25;13.63;;;;;;;16.01;95.32;101729.28;5083595;28;20044;-63
2022/10/29 00:41:27;;;;;;;41.60;12.70;;;;;;;16.04;95.25;101726.25;5065449;28;20126;-63
2022/10/29 00:46:54;;;;;;;41.33;13.23;;;;;;;16.04;95.40;101720.91;5111172;27;20391;-63
2022/10/29 00:49:23;;;;;;;46.10;13.57;;;;;;;16.06;95.25;101724.28;5092753;28;20405;-63
2022/10/29 00:51:51;;;;;;;38.63;12.65;;;;;;;15.98;94.91;101718.91;5109996;28;20048;-63
2022/10/29 00:54:18;;;;;;;42.38;14.27;;;;;;;15.98;94.77;101720.75;5110854;28;20047;-63
2022/10/29 00:56:49;;;;;;;39.20;14.10;;;;;;;15.90;95.61;101716.25;5110778;28;20085;-63
2022/10/29 00:59:16;;;;;;;;;;;;;;;15.89;95.95;101706.53;5111131;28;20040;-63
2022/10/29 01:01:45;;;;;;;38.85;12.27;;;;;;;15.93;95.68;101716.75;5110427;28;19920;-63
2022/10/29 01:04:13;;;;;;;39.95;13.02;;;;;;;15.92;95.41;101703.53;5108725;28;20068;-63
2022/10/29 01:06:42;;;;;;;37.42;12.88;;;;;;;15.89;95.80;101698.50;5108964;28;20044;-63
2022/10/29 01:09:09;;;;;;;44.88;12.95;;;;;;;15.89;96.12;101699.34;5110636;28;20493;-63
2022/10/29 01:14:56;;;;;;;35.60;13.00;;;;;;;15.84;96.56;101706.19;5111304;27;20372;-63
2022/10/29 01:17:37;;;;;;;33.80;12.43;;;;;;;15.80;96.77;101703.00;5110624;28;20485;-63
2022/10/29 01:20:43;;;;;;;41.95;13.07;;;;;;;15.86;96.46;101707.72;5110930;28;20400;-63
2022/10/29 01:26:38;;;;;;;38.20;13.00;;;;;;;15.85;95.75;101702.53;5110914;27;20358;-63
2022/10/29 01:29:33;;;;;;;44.15;13.30;;;;;;;15.80;96.39;101696.81;5110577;28;20113;-64
2022/10/29 01:32:09;;;;;;;30.90;12.30;;;;;;;15.73;96.67;101702.81;5110984;28;20059;-64
2022/10/29 01:34:51;;;;;;;39.67;12.70;;;;;;;15.73;96.86;101704.63;5110607;28;20501;-63
2022/10/29 01:42:47;;;;;;;45.95;15.15;;;;;;;15.62;96.76;101680.88;5090885;28;20359;-63
2022/10/29 01:45:21;;;;;;;47.08;13.20;;;;;;;15.65;96.61;101675.22;5090488;28;20075;-63
2022/10/29 01:47:54;;;;;;;37.42;13.02;;;;;;;15.72;96.89;101684.25;5090627;28;20045;-63
2022/10/29 01:50:23;;;;;;;34.33;12.90;;;;;;;15.61;97.44;101684.53;5090419;28;20510;-63
2022/10/29 01:52:51;;;;;;;41.80;13.70;;;;;;;15.59;97.56;101689.22;5090078;28;20543;-63
2022/10/29 01:55:20;;;;;;;43.90;13.60;;;;;;;15.58;97.56;101685.72;5090254;28;20044;-63
2022/10/29 01:57:47;;;;;;;40.20;14.05;;;;;;;15.53;98.21;101678.19;5090264;28;20543;-63
2022/10/29 02:00:16;;;;;;;43.50;13.93;;;;;;;15.56;98.03;101674.34;5090531;28;20044;-63
2022/10/29 02:03:05;;;;;;;44.00;13.13;;;;;;;15.54;97.81;101674.50;5090123;28;20052;-64
2022/10/29 02:05:54;;;;;;;44.88;14.57;;;;;;;15.57;97.70;101677.84;5089498;28;20045;-64
2022/10/29 02:08:54;;;;;;;45.17;13.55;;;;;;;15.57;97.82;101672.50;5089855;28;20041;-64
2022/10/29 02:11:26;;;;;;;44.13;12.68;;;;;;;15.57;97.91;101669.81;5075200;28;20032;-64
2022/10/29 02:13:58;;;;;;;45.67;14.23;;;;;;;15.50;98.30;101664.31;5090226;28;20067;-64
2022/10/29 02:16:26;;;;;;;49.03;13.93;;;;;;;15.44;98.58;101660.44;5071713;28;20283;-64
2022/10/29 02:18:53;;;;;;;36.28;13.48;;;;;;;15.43;98.73;101657.97;5090020;28;20072;-63
2022/10/29 02:21:20;;;;;;;43.53;13.10;;;;;;;15.42;98.63;101656.28;5071481;28;20039;-64
2022/10/29 02:23:47;;;;;;;43.70;14.07;;;;;;;15.46;98.63;101661.13;5089936;28;20094;-63
2022/10/29 02:26:14;;;;;;;35.33;13.27;;;;;;;15.43;98.02;101655.28;5071619;28;20498;-64
2022/10/29 02:28:41;;;;;;;43.40;12.90;;;;;;;15.41;97.94;101642.06;5089703;28;20440;-64
2022/10/29 02:31:09;;;;;;;36.25;12.73;;;;;;;15.34;98.72;101646.41;5071419;28;20492;-64
2022/10/29 02:33:35;;;;;;;39.33;12.82;;;;;;;15.26;99.12;101647.22;5071836;28;20440;-63
2022/10/29 02:36:02;;;;;;;43.97;13.55;;;;;;;15.24;99.33;101651.88;5089966;28;20122;-64
2022/10/29 02:38:29;;;;;;;42.42;14.02;;;;;;;15.15;99.67;101643.00;5089465;28;20074;-64
2022/10/29 02:40:56;;;;;;;41.88;13.88;;;;;;;15.13;99.69;101642.34;5052898;28;20048;-64
2022/10/29 02:43:22;;;;;;;50.53;13.40;;;;;;;15.15;99.62;101636.81;5089159;28;20093;-64
2022/10/29 02:45:49;;;;;;;44.03;13.45;;;;;;;15.09;99.95;101640.97;5089562;28;20127;-63
2022/10/29 02:48:16;;;;;;;50.72;13.02;;;;;;;15.05;100.00;101639.63;5054545;28;20493;-63
2022/10/29 02:50:43;;;;;;;43.05;13.85;;;;;;;15.05;99.96;101634.28;5089559;28;20131;-63
2022/10/29 02:53:09;;;;;;;48.30;13.50;;;;;;;15.02;100.00;101636.44;5080342;28;20448;-64
2022/10/29 02:55:36;;;;;;;42.55;13.93;;;;;;;15.00;100.00;101635.75;5075645;28;20476;-63
2022/10/29 02:58:03;;;;;;;43.65;12.82;;;;;;;15.01;100.00;101629.41;5057135;28;20044;-64
2022/10/29 03:00:30;;;;;;;50.92;14.65;;;;;;;15.02;100.00;101644.47;5092587;28;20405;-63
2022/10/29 03:02:56;;;;;;;44.33;13.60;;;;;;;14.94;100.00;101632.72;5077801;28;20105;-63
2022/10/29 03:05:23;;;;;;;34.70;12.25;;;;;;;15.01;100.00;101643.63;5094380;28;20162;-63
2022/10/29 03:07:50;;;;;;;42.35;13.77;;;;;;;15.04;100.00;101632.59;5075153;28;20040;-64
2022/10/29 03:10:16;;;;;;;40.63;13.68;;;;;;;15.07;100.00;101631.44;5058228;28;20048;-65
2022/10/29 03:12:43;;;;;;;44.60;13.35;;;;;;;15.16;100.00;101631.31;5057696;28;20045;-64
2022/10/29 03:15:10;;;;;;;39.70;13.18;;;;;;;15.15;100.00;101631.47;5057584;28;20127;-64
2022/10/29 03:17:37;;;;;;;37.88;12.98;;;;;;;15.18;99.78;101630.31;5057414;28;20452;-64
2022/10/29 03:20:04;;;;;;;37.63;12.90;;;;;;;15.17;99.21;101629.47;5075557;28;20040;-64
2022/10/29 03:22:31;;;;;;;33.28;12.65;;;;;;;15.21;99.01;101621.97;5057464;28;20094;-64
2022/10/29 03:24:58;;;;;;;36.53;13.48;;;;;;;15.25;98.80;101628.66;5074811;28;20413;-64
2022/10/29 03:27:24;;;;;;;28.35;12.30;;;;;;;15.26;99.02;101617.81;5075356;28;20044;-64
2022/10/29 03:29:51;;;;;;;41.13;13.30;;;;;;;15.26;99.11;101620.50;5075126;28;20060;-64
2022/10/29 03:32:18;;;;;;;42.78;12.38;;;;;;;15.29;98.74;101612.13;5075643;28;20124;-65
2022/10/29 03:34:45;;;;;;;39.17;13.60;;;;;;;15.31;98.65;101615.47;5075103;28;20049;-64
2022/10/29 03:37:11;;;;;;;34.45;11.98;;;;;;;15.37;98.51;101613.97;5075030;28;20036;-64
2022/10/29 03:39:38;;;;;;;29.58;12.02;;;;;;;15.34;98.41;101599.09;5037017;28;21013;-64
2022/10/29 03:42:05;;;;;;;36.83;13.10;;;;;;;15.31;98.12;101609.28;5074721;28;20056;-65
2022/10/29 03:44:31;;;;;;;36.35;11.75;;;;;;;15.33;98.24;101607.28;5040960;28;20052;-64
2022/10/29 03:46:58;;;;;;;36.97;12.10;;;;;;;15.36;98.29;101615.81;5057423;28;20044;-65
2022/10/29 03:49:25;;;;;;;51.92;12.63;;;;;;;15.36;97.73;101597.09;5074571;28;20127;-65
2022/10/29 03:51:51;;;;;;;36.17;11.88;;;;;;;15.26;97.95;101579.53;5074555;28;20033;-65
2022/10/29 03:54:18;;;;;;;40.10;11.82;;;;;;;15.28;98.11;101598.91;5056724;28;20048;-65
2022/10/29 03:56:44;;;;;;;36.25;12.02;;;;;;;15.23;98.01;101587.91;5074853;28;20052;-65
2022/10/29 03:59:11;;;;;;;39.30;10.88;;;;;;;15.22;97.93;101591.56;5074792;28;20055;-64
2022/10/29 04:01:38;;;;;;;34.53;11.70;;;;;;;15.24;98.04;101595.75;5056478;28;20090;-65
2022/10/29 04:04:05;;;;;;;37.58;11.60;;;;;;;15.26;98.08;101593.75;5072953;28;20037;-64
2022/10/29 04:06:31;;;;;;;32.38;11.38;;;;;;;15.24;97.81;101598.41;5056216;28;20048;-64
2022/10/29 04:08:58;;;;;;;43.95;12.45;;;;;;;15.27;97.52;101590.06;5073942;28;20044;-65
2022/10/29 04:11:24;;;;;;;33.20;11.43;;;;;;;15.31;97.55;101602.09;5074514;28;20044;-64
2022/10/29 04:13:52;;;;;;;36.55;10.73;;;;;;;15.34;97.53;101609.81;5074361;28;20048;-65
2022/10/29 04:16:19;;;;;;;43.53;11.30;;;;;;;15.34;97.26;101612.47;5074321;28;20105;-64
2022/10/29 04:18:47;;;;;;;39.55;11.00;;;;;;;15.36;97.34;101609.66;5039923;28;20036;-64
2022/10/29 04:21:15;;;;;;;38.03;10.77;;;;;;;15.36;97.38;101612.31;5055815;28;20427;-64
2022/10/29 04:24:02;;;;;;;44.50;11.60;;;;;;;15.34;97.35;101603.63;5042573;28;20036;-64
2022/10/29 04:26:49;;;;;;;42.05;13.10;;;;;;;15.28;97.06;101594.44;5058981;28;20036;-64
2022/10/29 04:29:35;;;;;;;31.27;10.85;;;;;;;15.28;97.22;101594.44;5059801;28;20040;-64
2022/10/29 04:32:03;;;;;;;38.88;11.73;;;;;;;15.34;96.89;101590.25;5073761;28;20036;-64
2022/10/29 04:34:29;;;;;;;34.70;10.90;;;;;;;15.33;97.21;101583.22;5073717;28;20082;-64
2022/10/29 04:36:56;;;;;;;40.17;10.75;;;;;;;15.34;96.61;101580.41;5073503;28;20037;-64
2022/10/29 04:39:23;;;;;;;39.50;11.55;;;;;;;15.32;96.80;101573.56;5043114;28;20047;-64
2022/10/29 04:41:50;;;;;;;39.33;10.70;;;;;;;15.32;96.84;101585.06;5033535;28;20050;-65
2022/10/29 04:44:17;;;;;;;36.35;11.57;;;;;;;15.32;96.78;101585.06;5032584;28;20435;-64
2022/10/29 04:46:43;;;;;;;40.47;10.93;;;;;;;15.36;96.60;101570.38;5033683;28;20568;-64
2022/10/29 04:49:10;;;;;;;33.70;11.07;;;;;;;15.32;96.55;101558.34;5032343;28;20446;-64
2022/10/29 04:51:37;;;;;;;47.92;12.38;;;;;;;15.33;96.38;101543.13;5033866;28;20033;-64
2022/10/29 04:54:03;;;;;;;40.30;11.50;;;;;;;15.30;96.16;101530.94;5032243;28;20225;-64
2022/10/29 04:56:30;;;;;;;35.75;11.15;;;;;;;15.35;96.46;101535.78;5033921;28;20072;-65
2022/10/29 04:58:57;;;;;;;35.67;11.45;;;;;;;15.39;96.35;101530.94;5031313;28;20148;-64
2022/10/29 05:01:23;;;;;;;38.63;10.40;;;;;;;15.41;96.27;101543.16;5029800;28;20064;-64
2022/10/29 05:03:51;;;;;;;36.85;10.82;;;;;;;15.41;96.29;101553.00;5015829;28;20049;-64
2022/10/29 05:06:18;;;;;;;39.15;10.88;;;;;;;15.42;95.98;101552.00;5032838;28;20049;-64
2022/10/29 05:08:45;;;;;;;38.70;11.57;;;;;;;15.39;95.52;101557.66;5033340;28;20491;-64
2022/10/29 05:11:12;;;;;;;42.72;11.13;;;;;;;15.38;95.44;101556.84;5033150;28;20495;-64
2022/10/29 05:13:38;;;;;;;37.05;12.23;;;;;;;15.41;95.04;101559.19;5032497;28;20609;-64
2022/10/29 05:16:07;;;;;;;45.97;11.43;;;;;;;15.41;95.36;101558.34;5033063;28;20046;-64
2022/10/29 05:18:36;;;;;;;35.63;10.82;;;;;;;15.30;95.73;101551.50;5032272;28;20057;-65
2022/10/29 05:21:02;;;;;;;46.03;10.63;;;;;;;15.38;95.60;101550.66;5033354;28;20048;-64
2022/10/29 05:23:30;;;;;;;34.97;11.70;;;;;;;15.30;95.56;101538.97;5033156;28;20045;-64
2022/10/29 05:25:56;;;;;;;35.55;11.25;;;;;;;15.35;95.49;101531.28;5033383;28;20046;-64
2022/10/29 05:28:23;;;;;;;41.30;11.45;;;;;;;15.28;95.74;101538.31;5032245;28;20045;-64
2022/10/29 05:30:52;;;;;;;34.65;11.48;;;;;;;15.27;95.74;101538.47;5033014;28;20403;-65
2022/10/29 05:33:20;;;;;;;44.60;11.73;;;;;;;15.29;95.63;101536.47;5033547;28;20069;-64
2022/10/29 05:35:47;;;;;;;49.70;11.68;;;;;;;15.24;95.62;101542.28;5031790;28;20540;-65
2022/10/29 05:38:14;;;;;;;35.53;11.88;;;;;;;15.27;95.57;101544.63;5033034;28;20053;-64
2022/10/29 05:40:43;;;;;;;32.55;11.27;;;;;;;15.27;95.52;101549.97;4977902;28;20054;-65
2022/10/29 05:43:11;;;;;;;39.38;11.60;;;;;;;15.25;95.37;101551.97;5033375;28;20042;-64
2022/10/29 05:45:38;;;;;;;34.67;11.73;;;;;;;15.24;95.37;101547.63;5031447;28;20430;-64
2022/10/29 05:48:05;;;;;;;37.05;10.68;;;;;;;15.22;95.61;101543.47;5015672;28;20064;-64
2022/10/29 05:50:32;;;;;;;40.85;10.85;;;;;;;15.23;95.26;101542.47;5032885;28;20038;-64
2022/10/29 05:53:01;;;;;;;39.63;11.95;;;;;;;15.28;95.17;101546.31;5033053;28;20041;-65
2022/10/29 05:55:30;;;;;;;29.90;11.02;;;;;;;15.26;95.00;101539.44;5032639;28;20041;-65
2022/10/29 05:57:58;;;;;;;40.20;11.35;;;;;;;15.17;94.94;101535.91;5031483;28;20044;-64
2022/10/29 06:00:27;;;;;;;37.97;10.95;;;;;;;15.12;95.55;101530.25;5033069;28;20057;-64
2022/10/29 06:02:54;;;;;;;38.63;10.85;;;;;;;15.12;95.56;101525.75;5032766;28;20119;-64
2022/10/29 06:05:21;;;;;;;38.72;11.32;;;;;;;15.11;95.87;101526.72;5032298;28;20049;-64
2022/10/29 06:07:56;;;;;;;34.53;10.55;;;;;;;15.12;95.13;101528.41;5032591;28;20069;-64
2022/10/29 06:10:24;;;;;;;42.05;12.25;;;;;;;15.12;95.38;101531.09;5032598;28;20096;-65
2022/10/29 06:12:51;;;;;;;34.50;11.07;;;;;;;15.10;95.55;101525.06;5032662;28;20038;-64
2022/10/29 06:15:18;;;;;;;30.98;10.95;;;;;;;15.16;95.10;101523.56;5031740;28;20054;-64
2022/10/29 06:17:45;;;;;;;29.58;10.43;;;;;;;15.13;95.27;101519.41;5031409;28;20168;-64
2022/10/29 06:20:13;;;;;;;41.08;11.52;;;;;;;15.13;95.51;101519.41;5032575;28;20522;-64
2022/10/29 06:22:40;;;;;;;30.67;10.20;;;;;;;15.16;95.02;101526.25;5031385;28;20065;-64
2022/10/29 06:25:09;;;;;;;39.42;10.93;;;;;;;15.18;94.69;101523.41;5032290;28;20056;-64
2022/10/29 06:27:36;;;;;;;35.40;10.88;;;;;;;15.15;95.02;101511.22;5031938;28;20092;-64
2022/10/29 06:30:04;;;;;;;40.63;11.20;;;;;;;15.18;94.78;101510.88;5035657;28;20056;-64
2022/10/29 06:32:32;;;;;;;36.78;11.13;;;;;;;15.29;94.48;101515.91;5036378;28;20057;-64
2022/10/29 06:34:58;;;;;;;40.00;11.07;;;;;;;15.30;94.25;101520.25;5036191;28;20052;-64
2022/10/29 06:37:25;;;;;;;46.42;11.45;;;;;;;15.31;94.29;101510.38;5035829;28;20052;-64
2022/10/29 06:39:52;;;;;;;35.40;10.48;;;;;;;15.27;94.40;101511.72;4998933;28;20514;-65
2022/10/29 06:42:18;;;;;;;43.20;11.05;;;;;;;15.31;93.94;101515.75;5069899;28;20060;-64
2022/10/29 06:44:45;;;;;;;42.00;11.02;;;;;;;15.34;93.79;101520.75;5058151;28;20051;-64
2022/10/29 06:47:12;;;;;;;37.63;10.48;;;;;;;15.32;93.87;101525.44;5058496;28;20440;-64
2022/10/29 06:49:38;;;;;;;41.83;12.70;;;;;;;15.37;93.48;101517.72;5075788;28;20048;-64
2022/10/29 06:52:05;;;;;;;44.80;11.65;;;;;;;15.42;93.53;101514.56;5075996;28;20071;-65
2022/10/29 06:54:32;;;;;;;35.88;11.38;;;;;;;15.41;93.19;101529.78;5075281;28;20460;-65
2022/10/29 06:56:58;;;;;;;41.22;11.32;;;;;;;15.44;92.74;101525.94;5058057;28;20067;-64
2022/10/29 06:59:25;;;;;;;34.80;11.45;;;;;;;15.51;92.43;101537.63;5075324;28;20051;-64
2022/10/29 07:01:52;;;;;;;38.80;12.20;;;;;;;15.52;92.57;101533.97;5059833;28;20463;-64
2022/10/29 07:04:20;;;;;;;46.55;12.93;;;;;;;15.52;92.46;101529.44;5055244;28;20090;-64
2022/10/29 07:06:46;;;;;;;37.50;12.38;;;;;;;15.62;92.62;101531.13;5027472;28;20052;-64
2022/10/29 07:09:13;;;;;;;36.08;11.70;;;;;;;15.62;91.78;101534.63;5054118;28;20047;-64
2022/10/29 07:11:40;;;;;;;43.53;12.15;;;;;;;15.64;91.96;101531.78;5037410;28;20041;-64
2022/10/29 07:14:08;;;;;;;32.17;11.52;;;;;;;15.54;91.46;101531.97;5037651;28;20044;-65
2022/10/29 07:16:35;;;;;;;33.88;11.68;;;;;;;15.63;90.74;101525.59;5055265;28;20041;-64
2022/10/29 07:19:03;;;;;;;28.05;10.43;;;;;;;15.64;90.69;101523.75;5037631;28;20047;-64
2022/10/29 07:21:30;;;;;;;29.50;9.82;;;;;;;15.65;90.13;101528.94;5037972;28;20585;-64
2022/10/29 07:23:57;;;;;;;37.00;10.90;;;;;;;15.81;89.76;101530.81;5054692;28;20040;-65
2022/10/29 07:26:24;;;;;;;34.72;10.15;;;;;;;15.77;89.70;101540.19;5054987;28;20049;-64
2022/10/29 07:28:55;;;;;;;36.35;9.90;;;;;;;15.93;89.58;101547.31;5054954;28;20049;-65
2022/10/29 07:31:22;;;;;;;34.38;9.80;;;;;;;15.95;88.96;101547.16;5055165;28;20443;-64
2022/10/29 07:33:49;;;;;;;39.53;9.93;;;;;;;15.96;88.59;101548.84;5055015;28;20090;-65
2022/10/29 07:36:16;;;;;;;37.15;9.32;;;;;;;16.00;88.32;101553.66;5061840;28;20048;-64
2022/10/29 07:38:43;;;;;;;31.95;10.35;;;;;;;16.14;88.40;101545.97;5057232;28;20071;-65
2022/10/29 07:41:10;;;;;;;36.47;9.82;;;;;;;16.07;88.11;101549.31;5008175;28;20521;-65
2022/10/29 07:43:37;;;;;;;23.98;9.02;;;;;;;16.18;87.47;101549.97;5034811;28;20091;-65
2022/10/29 07:46:04;;;;;;;38.63;10.15;;;;;;;16.22;87.41;101545.94;5034830;28;20049;-65
2022/10/29 07:48:31;;;;;;;32.65;10.48;;;;;;;16.27;87.92;101554.28;5034843;28;20095;-65
2022/10/29 07:50:58;;;;;;;34.10;10.48;;;;;;;16.21;87.67;101553.13;5034447;28;20045;-65
2022/10/29 07:53:25;;;;;;;38.33;10.35;;;;;;;16.20;87.59;101547.94;5034744;28;20537;-64
2022/10/29 07:55:54;;;;;;;33.53;11.10;;;;;;;16.22;87.44;101546.75;5034427;28;20064;-64
2022/10/29 07:58:22;;;;;;;41.08;11.02;;;;;;;16.30;86.38;101541.38;5034668;28;20057;-65
2022/10/29 08:00:49;;;;;;;34.05;11.30;;;;;;;16.27;86.78;101538.22;5034859;28;20487;-64
2022/10/29 08:03:15;;;;;;;35.33;11.05;;;;;;;16.25;87.04;101537.56;5033244;28;20042;-64
2022/10/29 08:05:42;;;;;;;34.42;10.80;;;;;;;16.33;86.42;101540.19;5049071;28;20047;-65
2022/10/29 08:08:09;;;;;;;29.27;11.50;;;;;;;16.35;86.32;101540.03;5034300;28;20065;-64
2022/10/29 08:10:36;;;;;;;37.88;11.93;;;;;;;16.50;86.29;101541.00;5032573;28;20049;-64
2022/10/29 08:13:04;;;;;;;37.72;11.23;;;;;;;16.83;84.41;101546.22;5032512;28;20466;-65
2022/10/29 08:15:33;;;;;;;33.58;11.13;;;;;;;17.13;83.62;101552.56;5034421;28;20061;-65
2022/10/29 08:18:00;;;;;;;34.90;11.88;;;;;;;17.16;82.45;101552.22;5033178;28;20099;-65
2022/10/29 08:20:28;;;;;;;43.42;12.80;;;;;;;17.25;81.99;101544.97;5033945;28;20121;-64
2022/10/29 08:22:57;;;;;;;42.33;13.85;;;;;;;17.04;82.87;101533.00;5033886;28;20065;-64
2022/10/29 08:25:25;;;;;;;50.03;14.38;;;;;;;17.03;83.12;101525.19;5033978;28;20500;-64
2022/10/29 08:28:01;;;;;;;55.83;16.08;;;;;;;16.96;83.13;101526.91;5032976;28;20075;-65
2022/10/29 08:30:28;;;;;;;47.22;16.17;;;;;;;17.02;83.78;101521.63;5033994;28;20501;-64
2022/10/29 08:32:55;;;;;;;44.75;15.18;;;;;;;16.95;83.46;101531.41;5033677;28;20041;-64
2022/10/29 08:35:22;;;;;;;40.17;15.07;;;;;;;17.08;83.57;101531.66;5033687;28;20121;-63
2022/10/29 08:37:48;;;;;;;50.83;15.63;;;;;;;17.11;82.54;101527.78;5033653;28;20046;-64
2022/10/29 08:40:27;;;;;;;47.15;15.05;;;;;;;17.08;82.93;101525.44;4995187;28;20136;-64
2022/10/29 08:43:28;;;;;;;41.20;14.27;;;;;;;17.15;82.70;101518.38;5072942;28;20071;-64
2022/10/29 08:45:55;;;;;;;47.10;16.05;;;;;;;17.35;81.97;101518.72;5073776;28;20051;-64
2022/10/29 08:51:29;;;;;;;41.50;13.90;;;;;;;17.55;81.26;101529.78;5111033;27;20398;-63
2022/10/29 08:53:57;;;;;;;37.93;13.47;;;;;;;17.55;80.12;101520.91;5110133;28;20118;-64
2022/10/29 08:56:49;;;;;;;46.50;12.48;;;;;;;17.87;80.03;101527.84;5110260;28;20292;-64
2022/10/29 08:59:20;;;;;;;47.45;12.45;;;;;;;18.00;79.00;101528.06;5110517;28;20059;-63
2022/10/29 09:01:47;;;;;;;48.83;11.45;;;;;;;18.07;78.52;101520.09;5103007;28;20143;-63
2022/10/29 09:04:25;;;;;;;39.78;11.93;;;;;;;18.12;78.48;101519.53;5090154;28;20044;-64
2022/10/29 09:07:16;;;;;;;35.53;11.00;;;;;;;18.17;77.40;101519.81;5100626;28;20093;-64
2022/10/29 09:09:51;;;;;;;41.72;10.75;;;;;;;18.36;78.13;101524.63;5109088;28;20119;-65
2022/10/29 09:15:38;;;;;;;42.33;10.18;;;;;;;18.50;76.31;101524.78;5111001;27;20391;-63
2022/10/29 09:21:08;;;;;;;29.30;9.52;;;;;;;18.67;75.53;101523.56;5110915;27;20401;-63
2022/10/29 09:24:03;;;;;;;40.90;10.25;;;;;;;18.72;74.96;101517.63;5111008;28;20054;-63
2022/10/29 09:26:47;;;;;;;35.03;9.68;;;;;;;18.79;74.59;101514.00;5109435;28;20044;-64
2022/10/29 09:29:44;;;;;;;34.42;10.00;;;;;;;18.93;73.56;101525.75;5110713;28;20425;-65
2022/10/29 09:32:34;;;;;;;34.40;10.35;;;;;;;18.93;74.16;101516.84;5110720;28;20505;-64
2022/10/29 09:35:06;;;;;;;37.25;9.75;;;;;;;18.94;73.51;101513.16;5110226;28;20513;-65
2022/10/29 09:40:16;;;;;;;35.75;9.43;;;;;;;19.11;73.92;101509.19;5075189;27;20380;-63
2022/10/29 09:42:46;;;;;;;30.00;8.90;;;;;;;19.12;73.54;101513.53;5109701;28;20123;-63
2022/10/29 09:45:17;;;;;;;34.47;9.75;;;;;;;18.96;73.47;101509.25;5110643;28;20044;-64
2022/10/29 09:47:52;;;;;;;27.48;9.27;;;;;;;19.12;73.64;101504.66;5109475;28;20047;-64
2022/10/29 09:50:46;;;;;;;37.30;10.00;;;;;;;19.23;73.05;101497.91;5109225;28;20036;-64
2022/10/29 09:53:13;;;;;;;28.98;8.82;;;;;;;19.13;72.95;101506.31;5110714;28;20047;-64
2022/10/29 09:55:43;;;;;;;27.17;9.38;;;;;;;19.21;72.99;101508.88;5110280;28;20052;-64
2022/10/29 09:58:19;;;;;;;41.60;9.70;;;;;;;19.24;73.48;101500.41;5110674;28;20044;-65
2022/10/29 10:00:45;;;;;;;37.45;9.48;;;;;;;19.27;72.84;101505.41;5110495;28;20044;-64
2022/10/29 10:03:19;;;;;;;42.75;10.63;;;;;;;19.22;73.33;101509.69;5110116;28;20040;-65
2022/10/29 10:06:03;;;;;;;35.53;8.98;;;;;;;19.07;73.46;101501.72;5109493;28;20451;-64
2022/10/29 10:08:31;;;;;;;33.92;9.30;;;;;;;19.03;74.31;101500.41;5109288;28;20040;-64
2022/10/29 10:11:04;;;;;;;32.05;9.77;;;;;;;18.95;74.34;101498.69;5110035;28;20050;-63
2022/10/29 10:13:52;;;;;;;42.30;10.23;;;;;;;18.94;74.86;101495.16;5109812;28;20043;-63
2022/10/29 10:16:25;;;;;;;35.35;9.18;;;;;;;19.00;74.66;101493.56;5110269;28;20076;-62
2022/10/29 10:18:52;;;;;;;31.50;9.18;;;;;;;19.04;73.92;101491.31;5108724;28;20040;-64
2022/10/29 10:21:29;;;;;;;34.05;9.27;;;;;;;19.22;74.05;101497.06;5110424;28;20044;-64
2022/10/29 10:24:00;;;;;;;30.35;9.40;;;;;;;19.14;72.83;101489.16;5108796;28;20047;-63
2022/10/29 10:29:15;;;;;;;38.42;8.98;;;;;;;19.05;74.30;101501.91;5110814;27;20384;-63
2022/10/29 10:31:47;;;;;;;28.63;9.18;;;;;;;19.06;74.43;101495.47;5110598;28;20036;-63
2022/10/29 10:34:21;;;;;;;39.85;10.05;;;;;;;19.13;74.52;101490.16;5110661;28;20135;-63
2022/10/29 10:36:52;;;;;;;38.17;8.88;;;;;;;19.19;74.50;101475.94;5109336;28;20409;-63
2022/10/29 10:39:28;;;;;;;33.42;9.23;;;;;;;19.23;73.39;101479.94;5075798;28;20048;-64
2022/10/29 10:41:58;;;;;;;33.88;8.82;;;;;;;19.30;72.93;101475.44;5094659;28;20439;-63
2022/10/29 10:44:26;;;;;;;37.92;9.30;;;;;;;19.42;73.66;101470.34;5102121;28;20054;-63
2022/10/29 10:46:56;;;;;;;32.20;8.68;;;;;;;19.61;72.35;101482.31;5101895;28;20052;-63
2022/10/29 10:52:13;;;;;;;38.25;8.18;;;;;;;20.34;68.94;101476.53;5109748;27;20411;-63
2022/10/29 10:54:45;;;;;;;35.95;7.90;;;;;;;20.92;66.93;101478.81;5088927;28;20050;-63
2022/10/29 10:57:19;;;;;;;39.63;8.65;;;;;;;20.87;66.41;101481.28;5090305;28;20117;-63
2022/10/29 11:00:13;;;;;;;29.30;8.38;;;;;;;20.95;65.71;101478.38;5090035;28;20048;-63
2022/10/29 11:02:52;;;;;;;35.15;8.60;;;;;;;21.15;64.94;101475.72;5087827;28;20044;-63
2022/10/29 11:05:22;;;;;;;35.15;8.15;;;;;;;22.93;59.71;101473.81;5089333;28;20084;-63
2022/10/29 11:08:15;;;;;;;26.33;8.80;;;;;;;23.58;56.04;101465.41;5072318;28;20048;-63
2022/10/29 11:10:50;;;;;;;27.70;8.15;;;;;;;23.98;55.63;101472.28;5088345;28;20040;-63
2022/10/29 11:13:21;;;;;;;28.02;7.60;;;;;;;25.14;51.87;101469.50;5090166;28;20049;-64
2022/10/29 11:15:55;;;;;;;35.92;7.97;;;;;;;25.92;49.20;101471.03;5089548;28;20048;-64
2022/10/29 11:18:44;;;;;;;24.48;8.85;;;;;;;26.03;48.46;101464.81;5090125;28;20130;-64
2022/10/29 11:21:20;;;;;;;37.40;8.18;;;;;;;27.04;45.85;101458.00;5088489;28;20066;-64
2022/10/29 11:23:59;;;;;;;32.08;7.45;;;;;;;27.94;43.57;101463.44;5088727;28;20180;-64
2022/10/29 11:26:35;;;;;;;30.08;7.35;;;;;;;27.74;43.58;101459.38;5089333;28;20461;-64
2022/10/29 11:29:24;;;;;;;33.47;7.53;;;;;;;27.38;43.65;101461.56;5089699;28;20054;-64
2022/10/29 11:32:31;;;;;;;29.55;7.65;;;;;;;27.61;43.65;101464.34;5089420;28;20048;-64
2022/10/29 11:35:22;;;;;;;29.73;7.22;;;;;;;27.92;42.59;101465.59;5088407;28;20048;-64
2022/10/29 11:37:58;;;;;;;29.80;7.22;;;;;;;28.04;42.47;101466.31;5089815;28;20045;-64
2022/10/29 11:40:49;;;;;;;32.42;8.15;;;;;;;27.75;42.90;101452.81;5052262;28;20573;-64
2022/10/29 11:43:19;;;;;;;34.08;7.38;;;;;;;27.46;43.43;101457.59;5088770;28;20048;-64
2022/10/29 11:46:12;;;;;;;36.28;7.50;;;;;;;26.56;45.99;101451.13;5089359;28;20056;-65
2022/10/29 11:49:05;;;;;;;32.63;7.40;;;;;;;26.41;46.73;101443.50;5089430;28;20040;-64
2022/10/29 11:51:52;;;;;;;30.23;7.30;;;;;;;25.83;48.25;101448.03;5088820;28;20052;-63
2022/10/29 11:54:51;;;;;;;33.53;7.32;;;;;;;24.93;50.21;101439.13;5089562;28;20076;-64
2022/10/29 11:57:40;;;;;;;27.77;7.22;;;;;;;24.51;50.98;101439.09;5089022;28;20040;-64
2022/10/29 12:05:40;;;;;;;32.42;7.63;;;;;;;23.54;54.21;101432.53;5110263;27;20354;-64
2022/10/29 12:11:39;;;;;;;26.42;7.43;;;;;;;22.93;56.45;101423.22;5073171;27;20361;-63